sensor_id;sensor_type;location;lat;lon;timestamp;pressure;altitude;pressure_sealevel;temperature;humidity
62849;BME280;48941;49.516;8.286;2022-09-04T00:01:15;100370.44;;;16.65;94.41
62849;BME280;48941;49.516;8.286;2022-09-04T00:03:49;100377.00;;;16.70;94.83
62849;BME280;48941;49.516;8.286;2022-09-04T00:06:27;100372.81;;;16.76;95.62
62849;BME280;48941;49.516;8.286;2022-09-04T00:09:04;100375.88;;;16.81;96.00
62849;BME280;48941;49.516;8.286;2022-09-04T00:11:41;100387.63;;;16.80;96.50
62849;BME280;48941;49.516;8.286;2022-09-04T00:14:15;100385.09;;;16.79;97.28
62849;BME280;48941;49.516;8.286;2022-09-04T00:16:50;100391.16;;;16.81;98.38
62849;BME280;48941;49.516;8.286;2022-09-04T00:19:26;100383.78;;;16.83;98.54
62849;BME280;48941;49.516;8.286;2022-09-04T00:21:58;100384.16;;;16.88;98.46
62849;BME280;48941;49.516;8.286;2022-09-04T00:24:29;100389.38;;;16.89;99.50
62849;BME280;48941;49.516;8.286;2022-09-04T00:27:02;100391.06;;;16.90;100.00
62849;BME280;48941;49.516;8.286;2022-09-04T00:29:39;100381.94;;;16.83;100.00
62849;BME280;48941;49.516;8.286;2022-09-04T00:32:17;100381.25;;;16.81;100.00
62849;BME280;48941;49.516;8.286;2022-09-04T00:34:57;100384.94;;;16.80;100.00
62849;BME280;48941;49.516;8.286;2022-09-04T00:37:31;100387.13;;;16.77;100.00
62849;BME280;48941;49.516;8.286;2022-09-04T00:40:03;100382.91;;;16.74;100.00
62849;BME280;48941;49.516;8.286;2022-09-04T00:42:53;100393.66;;;16.74;100.00
62849;BME280;48941;49.516;8.286;2022-09-04T00:45:42;100389.81;;;16.77;100.00
62849;BME280;48941;49.516;8.286;2022-09-04T00:48:21;100387.25;;;16.75;100.00
62849;BME280;48941;49.516;8.286;2022-09-04T00:51:14;100398.41;;;16.80;100.00
62849;BME280;48941;49.516;8.286;2022-09-04T00:54:07;100398.69;;;16.77;100.00
62849;BME280;48941;49.516;8.286;2022-09-04T01:03:10;100408.63;;;16.77;100.00
62849;BME280;48941;49.516;8.286;2022-09-04T01:05:54;100412.66;;;16.81;99.67
62849;BME280;48941;49.516;8.286;2022-09-04T01:08:41;100412.41;;;16.84;100.00
62849;BME280;48941;49.516;8.286;2022-09-04T01:11:16;100415.75;;;16.86;99.48
62849;BME280;48941;49.516;8.286;2022-09-04T01:14:01;100417.44;;;16.87;99.33
62849;BME280;48941;49.516;8.286;2022-09-04T01:16:45;100419.81;;;16.90;98.98
62849;BME280;48941;49.516;8.286;2022-09-04T01:19:27;100420.81;;;16.89;99.11
62849;BME280;48941;49.516;8.286;2022-09-04T01:22:10;100417.28;;;16.88;99.23
62849;BME280;48941;49.516;8.286;2022-09-04T01:27:45;100421.97;;;16.86;98.73
62849;BME280;48941;49.516;8.286;2022-09-04T01:30:17;100424.97;;;16.83;98.74
62849;BME280;48941;49.516;8.286;2022-09-04T01:33:03;100426.84;;;16.83;98.95
62849;BME280;48941;49.516;8.286;2022-09-04T01:35:42;100418.91;;;16.81;99.09
62849;BME280;48941;49.516;8.286;2022-09-04T01:38:16;100420.91;;;16.79;98.96
62849;BME280;48941;49.516;8.286;2022-09-04T01:40:51;100430.00;;;16.78;98.10
62849;BME280;48941;49.516;8.286;2022-09-04T01:43:23;100425.94;;;16.74;97.60
62849;BME280;48941;49.516;8.286;2022-09-04T01:49:00;100428.75;;;16.64;98.40
62849;BME280;48941;49.516;8.286;2022-09-04T01:51:37;100433.94;;;16.58;97.57
62849;BME280;48941;49.516;8.286;2022-09-04T01:54:14;100429.22;;;16.51;96.57
62849;BME280;48941;49.516;8.286;2022-09-04T01:56:52;100427.31;;;16.44;96.55
62849;BME280;48941;49.516;8.286;2022-09-04T01:59:28;100432.69;;;16.44;96.86
62849;BME280;48941;49.516;8.286;2022-09-04T02:02:00;100434.53;;;16.43;97.00
62849;BME280;48941;49.516;8.286;2022-09-04T02:04:42;100430.16;;;16.42;97.20
62849;BME280;48941;49.516;8.286;2022-09-04T02:07:19;100428.94;;;16.37;97.39
62849;BME280;48941;49.516;8.286;2022-09-04T02:09:59;100429.78;;;16.37;97.68
62849;BME280;48941;49.516;8.286;2022-09-04T02:12:33;100436.19;;;16.36;98.22
62849;BME280;48941;49.516;8.286;2022-09-04T02:15:14;100437.16;;;16.35;98.50
62849;BME280;48941;49.516;8.286;2022-09-04T02:17:56;100437.84;;;16.37;99.15
62849;BME280;48941;49.516;8.286;2022-09-04T02:20:43;100443.22;;;16.37;98.86
62849;BME280;48941;49.516;8.286;2022-09-04T02:23:17;100441.41;;;16.38;99.22
62849;BME280;48941;49.516;8.286;2022-09-04T02:25:52;100438.38;;;16.41;99.67
62849;BME280;48941;49.516;8.286;2022-09-04T02:28:30;100438.22;;;16.42;99.41
62849;BME280;48941;49.516;8.286;2022-09-04T02:31:11;100435.53;;;16.42;98.95
62849;BME280;48941;49.516;8.286;2022-09-04T02:33:46;100437.88;;;16.45;98.53
62849;BME280;48941;49.516;8.286;2022-09-04T02:36:20;100444.44;;;16.43;98.50
62849;BME280;48941;49.516;8.286;2022-09-04T02:38:57;100441.91;;;16.41;99.50
62849;BME280;48941;49.516;8.286;2022-09-04T02:41:30;100442.09;;;16.40;98.87
62849;BME280;48941;49.516;8.286;2022-09-04T02:44:16;100447.63;;;16.38;99.51
62849;BME280;48941;49.516;8.286;2022-09-04T02:46:54;100451.13;;;16.39;100.00
62849;BME280;48941;49.516;8.286;2022-09-04T02:49:34;100450.47;;;16.37;100.00
62849;BME280;48941;49.516;8.286;2022-09-04T02:52:14;100455.97;;;16.35;100.00
62849;BME280;48941;49.516;8.286;2022-09-04T02:54:54;100459.53;;;16.36;100.00
62849;BME280;48941;49.516;8.286;2022-09-04T02:57:38;100453.28;;;16.35;100.00
62849;BME280;48941;49.516;8.286;2022-09-04T03:00:12;100461.34;;;16.35;100.00
62849;BME280;48941;49.516;8.286;2022-09-04T03:02:52;100469.75;;;16.32;100.00
62849;BME280;48941;49.516;8.286;2022-09-04T03:05:25;100461.16;;;16.28;100.00
62849;BME280;48941;49.516;8.286;2022-09-04T03:07:58;100465.69;;;16.28;100.00
62849;BME280;48941;49.516;8.286;2022-09-04T03:10:31;100468.00;;;16.23;100.00
62849;BME280;48941;49.516;8.286;2022-09-04T03:13:03;100471.84;;;16.20;100.00
62849;BME280;48941;49.516;8.286;2022-09-04T03:15:37;100473.03;;;16.18;100.00
62849;BME280;48941;49.516;8.286;2022-09-04T03:18:14;100465.81;;;16.18;100.00
62849;BME280;48941;49.516;8.286;2022-09-04T03:20:47;100462.28;;;16.18;100.00
62849;BME280;48941;49.516;8.286;2022-09-04T03:23:17;100463.41;;;16.15;100.00
62849;BME280;48941;49.516;8.286;2022-09-04T03:25:55;100466.28;;;16.13;100.00
62849;BME280;48941;49.516;8.286;2022-09-04T03:28:37;100464.72;;;16.11;99.72
62849;BME280;48941;49.516;8.286;2022-09-04T03:31:18;100471.97;;;16.10;99.30
62849;BME280;48941;49.516;8.286;2022-09-04T03:33:51;100479.00;;;16.11;99.40
62849;BME280;48941;49.516;8.286;2022-09-04T03:36:29;100476.63;;;16.08;98.95
62849;BME280;48941;49.516;8.286;2022-09-04T03:39:06;100473.75;;;16.02;99.15
62849;BME280;48941;49.516;8.286;2022-09-04T03:41:40;100480.94;;;16.01;99.29
62849;BME280;48941;49.516;8.286;2022-09-04T03:44:19;100480.25;;;15.99;98.76
62849;BME280;48941;49.516;8.286;2022-09-04T03:46:58;100484.78;;;15.99;99.34
62849;BME280;48941;49.516;8.286;2022-09-04T03:49:41;100474.38;;;15.96;98.89
62849;BME280;48941;49.516;8.286;2022-09-04T03:52:17;100486.25;;;15.93;99.13
62849;BME280;48941;49.516;8.286;2022-09-04T03:55:00;100489.47;;;15.97;99.21
62849;BME280;48941;49.516;8.286;2022-09-04T03:57:43;100487.94;;;15.94;99.54
62849;BME280;48941;49.516;8.286;2022-09-04T04:00:13;100493.31;;;15.94;99.57
62849;BME280;48941;49.516;8.286;2022-09-04T04:03:01;100495.88;;;15.96;99.76
62849;BME280;48941;49.516;8.286;2022-09-04T04:05:41;100500.22;;;15.97;100.00
62849;BME280;48941;49.516;8.286;2022-09-04T04:08:41;100500.44;;;16.03;99.22
62849;BME280;48941;49.516;8.286;2022-09-04T04:11:23;100504.34;;;16.09;98.72
62849;BME280;48941;49.516;8.286;2022-09-04T04:14:11;100500.19;;;16.15;98.81
62849;BME280;48941;49.516;8.286;2022-09-04T04:16:49;100505.28;;;16.18;98.37
62849;BME280;48941;49.516;8.286;2022-09-04T04:19:40;100508.31;;;16.23;98.40
62849;BME280;48941;49.516;8.286;2022-09-04T04:22:27;100509.00;;;16.25;97.57
62849;BME280;48941;49.516;8.286;2022-09-04T04:25:16;100506.31;;;16.25;97.84
62849;BME280;48941;49.516;8.286;2022-09-04T04:28:06;100506.31;;;16.25;98.66
62849;BME280;48941;49.516;8.286;2022-09-04T04:30:48;100510.53;;;16.27;98.76
62849;BME280;48941;49.516;8.286;2022-09-04T04:33:27;100521.81;;;16.31;98.70
62849;BME280;48941;49.516;8.286;2022-09-04T04:36:02;100526.19;;;16.32;98.19
62849;BME280;48941;49.516;8.286;2022-09-04T04:38:47;100525.50;;;16.30;97.15
62849;BME280;48941;49.516;8.286;2022-09-04T04:41:32;100529.50;;;16.26;96.89
62849;BME280;48941;49.516;8.286;2022-09-04T04:44:25;100533.03;;;16.26;96.95
62849;BME280;48941;49.516;8.286;2022-09-04T04:47:31;100539.94;;;16.29;96.30
62849;BME280;48941;49.516;8.286;2022-09-04T04:50:10;100543.63;;;16.28;96.21
62849;BME280;48941;49.516;8.286;2022-09-04T04:52:47;100548.47;;;16.24;96.00
62849;BME280;48941;49.516;8.286;2022-09-04T04:55:31;100546.63;;;16.25;96.75
62849;BME280;48941;49.516;8.286;2022-09-04T04:58:45;100549.31;;;16.25;96.68
62849;BME280;48941;49.516;8.286;2022-09-04T05:01:24;100549.47;;;16.23;97.43
62849;BME280;48941;49.516;8.286;2022-09-04T05:04:04;100556.38;;;16.26;97.72
62849;BME280;48941;49.516;8.286;2022-09-04T05:06:40;100560.59;;;16.28;97.78
62849;BME280;48941;49.516;8.286;2022-09-04T05:09:15;100563.81;;;16.32;98.01
62849;BME280;48941;49.516;8.286;2022-09-04T05:11:52;100563.81;;;16.32;98.21
62849;BME280;48941;49.516;8.286;2022-09-04T05:14:35;100568.19;;;16.33;98.74
62849;BME280;48941;49.516;8.286;2022-09-04T05:17:15;100567.34;;;16.32;99.11
62849;BME280;48941;49.516;8.286;2022-09-04T05:19:48;100573.56;;;16.33;99.65
62849;BME280;48941;49.516;8.286;2022-09-04T05:22:22;100570.50;;;16.28;99.94
62849;BME280;48941;49.516;8.286;2022-09-04T05:24:59;100576.03;;;16.26;100.00
62849;BME280;48941;49.516;8.286;2022-09-04T05:27:41;100577.56;;;16.29;100.00
62849;BME280;48941;49.516;8.286;2022-09-04T05:30:15;100584.31;;;16.33;100.00
62849;BME280;48941;49.516;8.286;2022-09-04T05:32:52;100586.38;;;16.39;100.00
62849;BME280;48941;49.516;8.286;2022-09-04T05:35:29;100587.75;;;16.43;100.00
62849;BME280;48941;49.516;8.286;2022-09-04T05:38:06;100592.81;;;16.46;100.00
62849;BME280;48941;49.516;8.286;2022-09-04T05:40:50;100601.56;;;16.48;100.00
62849;BME280;48941;49.516;8.286;2022-09-04T05:43:32;100605.94;;;16.49;100.00
62849;BME280;48941;49.516;8.286;2022-09-04T05:46:12;100605.09;;;16.49;100.00
62849;BME280;48941;49.516;8.286;2022-09-04T05:48:51;100605.94;;;16.49;100.00
62849;BME280;48941;49.516;8.286;2022-09-04T05:51:47;100608.88;;;16.56;100.00
62849;BME280;48941;49.516;8.286;2022-09-04T05:54:47;100623.88;;;16.67;100.00
62849;BME280;48941;49.516;8.286;2022-09-04T05:57:26;100619.34;;;16.67;100.00
62849;BME280;48941;49.516;8.286;2022-09-04T06:00:09;100621.88;;;16.69;100.00
62849;BME280;48941;49.516;8.286;2022-09-04T06:02:57;100630.97;;;16.68;100.00
62849;BME280;48941;49.516;8.286;2022-09-04T06:05:38;100632.66;;;16.69;100.00
62849;BME280;48941;49.516;8.286;2022-09-04T06:08:20;100634.19;;;16.71;100.00
62849;BME280;48941;49.516;8.286;2022-09-04T06:11:02;100639.25;;;16.75;100.00
62849;BME280;48941;49.516;8.286;2022-09-04T06:13:44;100632.69;;;16.77;100.00
62849;BME280;48941;49.516;8.286;2022-09-04T06:16:41;100638.16;;;16.85;100.00
62849;BME280;48941;49.516;8.286;2022-09-04T06:19:35;100637.88;;;16.88;100.00
62849;BME280;48941;49.516;8.286;2022-09-04T06:25:24;100650.53;;;16.96;100.00
62849;BME280;48941;49.516;8.286;2022-09-04T06:28:34;100654.38;;;16.94;100.00
62849;BME280;48941;49.516;8.286;2022-09-04T06:31:25;100658.22;;;16.91;100.00
62849;BME280;48941;49.516;8.286;2022-09-04T06:33:59;100665.16;;;16.94;100.00
62849;BME280;48941;49.516;8.286;2022-09-04T06:36:55;100666.53;;;16.98;100.00
62849;BME280;48941;49.516;8.286;2022-09-04T06:39:44;100663.88;;;17.06;100.00
62849;BME280;48941;49.516;8.286;2022-09-04T06:42:27;100671.63;;;17.09;100.00
62849;BME280;48941;49.516;8.286;2022-09-04T06:45:10;100672.16;;;17.12;99.90
62849;BME280;48941;49.516;8.286;2022-09-04T06:47:56;100671.84;;;17.16;99.97
62849;BME280;48941;49.516;8.286;2022-09-04T06:50:32;100676.69;;;17.12;99.57
62849;BME280;48941;49.516;8.286;2022-09-04T06:53:10;100687.50;;;17.20;99.61
62849;BME280;48941;49.516;8.286;2022-09-04T06:55:55;100687.72;;;17.27;98.30
62849;BME280;48941;49.516;8.286;2022-09-04T06:58:51;100687.56;;;17.28;98.83
62849;BME280;48941;49.516;8.286;2022-09-04T07:01:32;100686.38;;;17.31;98.82
62849;BME280;48941;49.516;8.286;2022-09-04T07:04:16;100684.22;;;17.35;99.54
62849;BME280;48941;49.516;8.286;2022-09-04T07:06:58;100689.97;;;17.40;99.20
62849;BME280;48941;49.516;8.286;2022-09-04T07:09:33;100693.03;;;17.45;99.27
62849;BME280;48941;49.516;8.286;2022-09-04T07:12:22;100692.38;;;17.51;98.24
62849;BME280;48941;49.516;8.286;2022-09-04T07:15:42;100694.44;;;17.57;97.17
62849;BME280;48941;49.516;8.286;2022-09-04T07:18:33;100696.13;;;17.58;96.61
62849;BME280;48941;49.516;8.286;2022-09-04T07:21:12;100696.16;;;17.66;96.10
62849;BME280;48941;49.516;8.286;2022-09-04T07:23:48;100692.47;;;17.67;96.65
62849;BME280;48941;49.516;8.286;2022-09-04T07:26:32;100691.16;;;17.71;96.56
62849;BME280;48941;49.516;8.286;2022-09-04T07:29:21;100705.13;;;17.75;95.98
62849;BME280;48941;49.516;8.286;2022-09-04T07:32:00;100714.56;;;17.79;96.12
62849;BME280;48941;49.516;8.286;2022-09-04T07:34:39;100708.72;;;17.84;95.49
62849;BME280;48941;49.516;8.286;2022-09-04T07:37:16;100709.06;;;17.89;94.48
62849;BME280;48941;49.516;8.286;2022-09-04T07:39:58;100721.72;;;17.88;94.67
62849;BME280;48941;49.516;8.286;2022-09-04T07:42:38;100724.59;;;17.95;93.88
62849;BME280;48941;49.516;8.286;2022-09-04T07:45:16;100732.34;;;17.98;93.79
62849;BME280;48941;49.516;8.286;2022-09-04T07:47:55;100733.03;;;18.00;94.29
62849;BME280;48941;49.516;8.286;2022-09-04T07:50:28;100739.75;;;17.96;94.47
62849;BME280;48941;49.516;8.286;2022-09-04T07:53:21;100742.31;;;17.98;94.42
62849;BME280;48941;49.516;8.286;2022-09-04T07:55:57;100743.97;;;17.99;94.18
62849;BME280;48941;49.516;8.286;2022-09-04T07:58:37;100735.22;;;18.05;93.73
62849;BME280;48941;49.516;8.286;2022-09-04T08:01:31;100739.13;;;18.10;93.63
62849;BME280;48941;49.516;8.286;2022-09-04T08:04:21;100741.66;;;18.12;93.62
62849;BME280;48941;49.516;8.286;2022-09-04T08:06:56;100743.34;;;18.13;93.76
62849;BME280;48941;49.516;8.286;2022-09-04T08:09:43;100747.22;;;18.10;93.86
62849;BME280;48941;49.516;8.286;2022-09-04T08:12:28;100749.94;;;18.19;93.54
62849;BME280;48941;49.516;8.286;2022-09-04T08:15:11;100754.00;;;18.31;92.95
62849;BME280;48941;49.516;8.286;2022-09-04T08:17:53;100758.56;;;18.30;92.67
62849;BME280;48941;49.516;8.286;2022-09-04T08:20:37;100757.06;;;18.36;92.38
62849;BME280;48941;49.516;8.286;2022-09-04T08:23:11;100767.72;;;18.46;92.20
62849;BME280;48941;49.516;8.286;2022-09-04T08:25:50;100774.47;;;18.58;92.17
62849;BME280;48941;49.516;8.286;2022-09-04T08:28:39;100767.91;;;18.69;91.85
62849;BME280;48941;49.516;8.286;2022-09-04T08:31:17;100776.22;;;18.84;91.12
62849;BME280;48941;49.516;8.286;2022-09-04T08:34:02;100778.78;;;18.85;89.79
62849;BME280;48941;49.516;8.286;2022-09-04T08:36:41;100779.78;;;18.93;89.56
62849;BME280;48941;49.516;8.286;2022-09-04T08:39:18;100787.88;;;19.01;89.04
62849;BME280;48941;49.516;8.286;2022-09-04T08:42:21;100783.13;;;19.03;89.19
62849;BME280;48941;49.516;8.286;2022-09-04T08:45:32;100782.47;;;19.09;88.97
62849;BME280;48941;49.516;8.286;2022-09-04T08:48:30;100797.16;;;19.15;88.33
62849;BME280;48941;49.516;8.286;2022-09-04T08:54:39;100802.91;;;19.20;88.21
62849;BME280;48941;49.516;8.286;2022-09-04T08:57:30;100805.41;;;19.13;89.09
62849;BME280;48941;49.516;8.286;2022-09-04T09:00:07;100804.91;;;19.26;89.04
62849;BME280;48941;49.516;8.286;2022-09-04T09:15:43;100791.00;;;20.26;83.00
62849;BME280;48941;49.516;8.286;2022-09-04T09:18:32;100798.19;;;20.42;82.45
62849;BME280;48941;49.516;8.286;2022-09-04T09:21:06;100797.78;;;20.53;81.74
62849;BME280;48941;49.516;8.286;2022-09-04T09:23:43;100796.25;;;20.59;81.63
62849;BME280;48941;49.516;8.286;2022-09-04T09:26:25;100792.84;;;20.65;80.97
62849;BME280;48941;49.516;8.286;2022-09-04T09:29:27;100795.16;;;20.68;80.46
62849;BME280;48941;49.516;8.286;2022-09-04T09:32:32;100787.59;;;20.63;80.43
62849;BME280;48941;49.516;8.286;2022-09-04T09:35:26;100786.22;;;20.67;80.69
62849;BME280;48941;49.516;8.286;2022-09-04T09:41:20;100787.91;;;20.92;80.10
62849;BME280;48941;49.516;8.286;2022-09-04T09:44:12;100781.94;;;21.19;79.28
62849;BME280;48941;49.516;8.286;2022-09-04T09:47:26;100778.34;;;21.57;78.06
62849;BME280;48941;49.516;8.286;2022-09-04T09:50:18;100776.50;;;22.02;76.22
62849;BME280;48941;49.516;8.286;2022-09-04T09:53:13;100770.47;;;22.36;75.05
62849;BME280;48941;49.516;8.286;2022-09-04T10:02:15;100766.94;;;23.50;70.86
62849;BME280;48941;49.516;8.286;2022-09-04T10:05:15;100769.63;;;23.78;69.33
62849;BME280;48941;49.516;8.286;2022-09-04T10:08:13;100762.00;;;23.95;68.02
62849;BME280;48941;49.516;8.286;2022-09-04T10:11:21;100770.50;;;24.27;67.44
62849;BME280;48941;49.516;8.286;2022-09-04T10:14:20;100760.38;;;24.62;65.33
62849;BME280;48941;49.516;8.286;2022-09-04T10:17:18;100754.97;;;24.82;64.47
62849;BME280;48941;49.516;8.286;2022-09-04T10:20:19;100760.84;;;25.13;63.66
62849;BME280;48941;49.516;8.286;2022-09-04T10:26:31;100755.56;;;25.58;61.50
62849;BME280;48941;49.516;8.286;2022-09-04T10:29:20;100759.69;;;25.87;61.55
62849;BME280;48941;49.516;8.286;2022-09-04T10:32:41;100755.59;;;26.23;61.60
62849;BME280;48941;49.516;8.286;2022-09-04T10:35:19;100757.53;;;26.54;59.52
62849;BME280;48941;49.516;8.286;2022-09-04T10:38:17;100750.94;;;26.69;57.74
62849;BME280;48941;49.516;8.286;2022-09-04T10:41:22;100753.06;;;26.92;56.41
62849;BME280;48941;49.516;8.286;2022-09-04T10:44:07;100754.03;;;27.04;55.69
62849;BME280;48941;49.516;8.286;2022-09-04T10:46:47;100748.34;;;27.31;55.39
62849;BME280;48941;49.516;8.286;2022-09-04T10:49:30;100748.78;;;27.53;54.01
62849;BME280;48941;49.516;8.286;2022-09-04T10:52:24;100739.81;;;27.83;53.04
62849;BME280;48941;49.516;8.286;2022-09-04T10:55:18;100746.28;;;28.07;51.31
62849;BME280;48941;49.516;8.286;2022-09-04T10:58:04;100747.03;;;28.14;51.21
62849;BME280;48941;49.516;8.286;2022-09-04T11:00:45;100745.50;;;28.18;50.91
62849;BME280;48941;49.516;8.286;2022-09-04T11:03:39;100740.59;;;28.38;48.26
62849;BME280;48941;49.516;8.286;2022-09-04T11:06:32;100735.31;;;28.55;49.28
62849;BME280;48941;49.516;8.286;2022-09-04T11:09:24;100739.06;;;28.85;49.34
62849;BME280;48941;49.516;8.286;2022-09-04T11:15:18;100740.81;;;29.33;47.20
62849;BME280;48941;49.516;8.286;2022-09-04T11:18:11;100727.91;;;29.45;45.82
62849;BME280;48941;49.516;8.286;2022-09-04T11:21:23;100724.81;;;29.42;45.71
62849;BME280;48941;49.516;8.286;2022-09-04T11:24:30;100728.84;;;29.63;44.68
62849;BME280;48941;49.516;8.286;2022-09-04T11:27:27;100720.88;;;29.73;44.70
62849;BME280;48941;49.516;8.286;2022-09-04T11:30:09;100723.13;;;29.76;45.28
62849;BME280;48941;49.516;8.286;2022-09-04T11:32:55;100724.72;;;30.01;45.01
62849;BME280;48941;49.516;8.286;2022-09-04T11:35:49;100721.34;;;30.10;43.52
62849;BME280;48941;49.516;8.286;2022-09-04T11:38:50;100721.19;;;30.17;43.33
62849;BME280;48941;49.516;8.286;2022-09-04T11:44:56;100713.28;;;30.04;43.58
62849;BME280;48941;49.516;8.286;2022-09-04T11:47:59;100720.13;;;30.18;42.72
62849;BME280;48941;49.516;8.286;2022-09-04T11:50:37;100708.28;;;30.17;43.17
62849;BME280;48941;49.516;8.286;2022-09-04T11:56:48;100716.81;;;30.16;43.45
62849;BME280;48941;49.516;8.286;2022-09-04T12:00:06;100715.44;;;30.02;43.46
62849;BME280;48941;49.516;8.286;2022-09-04T12:03:09;100711.47;;;29.97;43.55
62849;BME280;48941;49.516;8.286;2022-09-04T12:05:53;100717.16;;;29.79;44.53
62849;BME280;48941;49.516;8.286;2022-09-04T12:08:44;100719.66;;;29.81;44.68
62849;BME280;48941;49.516;8.286;2022-09-04T12:11:38;100714.03;;;29.64;44.43
62849;BME280;48941;49.516;8.286;2022-09-04T12:14:27;100714.66;;;29.66;44.05
62849;BME280;48941;49.516;8.286;2022-09-04T12:23:16;100714.56;;;30.01;41.67
62849;BME280;48941;49.516;8.286;2022-09-04T12:26:16;100721.78;;;29.90;42.13
62849;BME280;48941;49.516;8.286;2022-09-04T12:41:31;100713.25;;;29.04;43.50
62849;BME280;48941;49.516;8.286;2022-09-04T12:44:09;100713.47;;;28.91;44.67
62849;BME280;48941;49.516;8.286;2022-09-04T12:46:48;100713.00;;;28.94;45.20
62849;BME280;48941;49.516;8.286;2022-09-04T12:49:34;100708.59;;;29.05;45.09
62849;BME280;48941;49.516;8.286;2022-09-04T12:52:13;100716.22;;;29.03;44.10
62849;BME280;48941;49.516;8.286;2022-09-04T12:54:53;100723.25;;;28.98;42.91
62849;BME280;48941;49.516;8.286;2022-09-04T12:57:31;100720.00;;;29.02;43.88
62849;BME280;48941;49.516;8.286;2022-09-04T13:00:06;100726.63;;;29.24;43.22
62849;BME280;48941;49.516;8.286;2022-09-04T13:02:44;100722.91;;;29.42;43.52
62849;BME280;48941;49.516;8.286;2022-09-04T13:05:29;100724.69;;;29.60;42.95
62849;BME280;48941;49.516;8.286;2022-09-04T13:08:04;100726.72;;;29.76;42.24
62849;BME280;48941;49.516;8.286;2022-09-04T13:10:44;100711.13;;;30.06;41.05
62849;BME280;48941;49.516;8.286;2022-09-04T13:13:21;100718.38;;;30.41;39.74
62849;BME280;48941;49.516;8.286;2022-09-04T13:15:57;100713.16;;;30.56;38.10
62849;BME280;48941;49.516;8.286;2022-09-04T13:18:38;100719.94;;;30.82;37.46
62849;BME280;48941;49.516;8.286;2022-09-04T13:21:20;100722.59;;;31.11;37.60
62849;BME280;48941;49.516;8.286;2022-09-04T13:24:02;100719.28;;;31.09;36.21
62849;BME280;48941;49.516;8.286;2022-09-04T13:26:43;100723.00;;;31.36;34.60
62849;BME280;48941;49.516;8.286;2022-09-04T13:29:23;100727.72;;;31.58;34.15
62849;BME280;48941;49.516;8.286;2022-09-04T13:32:05;100717.53;;;31.59;34.41
62849;BME280;48941;49.516;8.286;2022-09-04T13:34:52;100721.34;;;31.19;34.00
62849;BME280;48941;49.516;8.286;2022-09-04T13:37:29;100719.69;;;31.01;35.43
62849;BME280;48941;49.516;8.286;2022-09-04T13:40:13;100716.63;;;30.97;35.97
62849;BME280;48941;49.516;8.286;2022-09-04T13:43:03;100713.44;;;31.05;35.46
62849;BME280;48941;49.516;8.286;2022-09-04T13:45:41;100709.63;;;31.06;36.23
62849;BME280;48941;49.516;8.286;2022-09-04T13:48:15;100708.59;;;31.12;36.22
62849;BME280;48941;49.516;8.286;2022-09-04T13:50:50;100705.31;;;31.32;35.46
62849;BME280;48941;49.516;8.286;2022-09-04T13:53:23;100702.00;;;31.30;35.66
62849;BME280;48941;49.516;8.286;2022-09-04T13:55:52;100707.47;;;31.47;35.34
62849;BME280;48941;49.516;8.286;2022-09-04T13:58:27;100702.25;;;31.29;35.55
62849;BME280;48941;49.516;8.286;2022-09-04T14:00:59;100695.75;;;31.18;35.20
62849;BME280;48941;49.516;8.286;2022-09-04T14:03:34;100696.19;;;31.10;36.15
62849;BME280;48941;49.516;8.286;2022-09-04T14:06:05;100694.66;;;31.19;35.96
62849;BME280;48941;49.516;8.286;2022-09-04T14:08:35;100695.34;;;31.26;35.68
62849;BME280;48941;49.516;8.286;2022-09-04T14:11:22;100692.81;;;31.25;35.39
62849;BME280;48941;49.516;8.286;2022-09-04T14:16:58;100692.72;;;31.36;33.52
62849;BME280;48941;49.516;8.286;2022-09-04T14:19:45;100696.06;;;31.39;33.67
62849;BME280;48941;49.516;8.286;2022-09-04T14:22:22;100692.22;;;31.40;33.80
62849;BME280;48941;49.516;8.286;2022-09-04T14:25:00;100688.34;;;31.19;34.30
62849;BME280;48941;49.516;8.286;2022-09-04T14:27:58;100694.94;;;31.17;33.51
62849;BME280;48941;49.516;8.286;2022-09-04T14:30:32;100693.88;;;31.02;33.46
62849;BME280;48941;49.516;8.286;2022-09-04T14:33:13;100686.84;;;31.11;34.27
62849;BME280;48941;49.516;8.286;2022-09-04T14:35:56;100685.78;;;31.12;34.82
62849;BME280;48941;49.516;8.286;2022-09-04T14:38:47;100692.44;;;31.16;34.22
62849;BME280;48941;49.516;8.286;2022-09-04T14:41:26;100688.78;;;31.10;34.74
62849;BME280;48941;49.516;8.286;2022-09-04T14:44:12;100690.25;;;31.18;34.07
62849;BME280;48941;49.516;8.286;2022-09-04T14:46:52;100697.53;;;30.90;34.19
62849;BME280;48941;49.516;8.286;2022-09-04T14:49:26;100695.13;;;30.94;34.03
62849;BME280;48941;49.516;8.286;2022-09-04T14:52:00;100701.59;;;30.88;34.67
62849;BME280;48941;49.516;8.286;2022-09-04T14:54:29;100706.78;;;31.01;34.78
62849;BME280;48941;49.516;8.286;2022-09-04T14:57:01;100702.78;;;31.09;34.35
62849;BME280;48941;49.516;8.286;2022-09-04T14:59:41;100693.94;;;31.07;33.88
62849;BME280;48941;49.516;8.286;2022-09-04T15:02:17;100700.34;;;31.12;33.38
62849;BME280;48941;49.516;8.286;2022-09-04T15:04:57;100684.91;;;31.11;33.89
62849;BME280;48941;49.516;8.286;2022-09-04T15:07:50;100693.22;;;30.94;33.87
62849;BME280;48941;49.516;8.286;2022-09-04T15:10:21;100690.84;;;31.03;33.61
62849;BME280;48941;49.516;8.286;2022-09-04T15:12:58;100689.44;;;31.01;33.76
62849;BME280;48941;49.516;8.286;2022-09-04T15:15:34;100686.31;;;30.92;33.75
62849;BME280;48941;49.516;8.286;2022-09-04T15:18:09;100686.53;;;30.90;33.33
62849;BME280;48941;49.516;8.286;2022-09-04T15:20:50;100692.28;;;30.72;33.80
62849;BME280;48941;49.516;8.286;2022-09-04T15:23:26;100682.34;;;30.54;35.41
62849;BME280;48941;49.516;8.286;2022-09-04T15:26:01;100679.03;;;30.52;35.19